Time;durP1;ratioP1;P1;durP2;ratioP2;P2;SDS_P1;SDS_P2;PMS_P1;PMS_P2;Temp;Humidity;BMP_temperature;BMP_pressure;BME280_temperature;BME280_humidity;BME280_pressure;Samples;Min_cycle;Max_cycle;Signal;HPM_P1;HPM_P2
2022/04/16 00:00:47;;;;;;;3.20;3.00;;;14.00;42.70;;;;;;20415;6865;308502;-76
2022/04/16 00:03:12;;;;;;;3.07;2.87;;;14.00;42.70;;;;;;20639;6865;117465;-73
2022/04/16 00:05:37;;;;;;;3.20;3.00;;;13.80;42.80;;;;;;20439;6863;289202;-74
2022/04/16 00:08:09;;;;;;;3.10;2.90;;;13.80;42.80;;;;;;20437;6864;311137;-74
2022/04/16 00:10:35;;;;;;;3.07;2.87;;;14.00;42.60;;;;;;20640;6864;117276;-74
2022/04/16 00:13:00;;;;;;;2.97;2.80;;;13.80;42.80;;;;;;20412;6864;314413;-74
2022/04/16 00:15:26;;;;;;;2.80;2.60;;;14.00;42.10;;;;;;20424;6864;342552;-74
2022/04/16 00:17:52;;;;;;;2.53;2.33;;;14.00;42.10;;;;;;20645;6864;118937;-74
2022/04/16 00:20:18;;;;;;;2.57;2.47;;;13.40;42.90;;;;;;20643;6864;117191;-76
2022/04/16 00:22:44;;;;;;;2.80;2.60;;;13.40;42.90;;;;;;20412;6864;308654;-75
2022/04/16 00:25:13;;;;;;;3.10;2.90;;;13.40;42.90;;;;;;20445;6864;308694;-75
2022/04/16 00:27:37;;;;;;;2.27;2.17;;;13.70;42.60;;;;;;20653;6864;117347;-74
2022/04/16 00:30:03;;;;;;;2.70;2.60;;;13.50;42.60;;;;;;20643;6864;117621;-74
2022/04/16 00:32:29;;;;;;;2.80;2.70;;;13.20;43.30;;;;;;20427;6864;307387;-75
2022/04/16 00:34:54;;;;;;;2.85;2.75;;;13.30;43.30;;;;;;20631;6864;119036;-75
2022/04/16 00:37:21;;;;;;;2.90;2.80;;;13.30;43.30;;;;;;20441;6864;279907;-75
2022/04/16 00:39:47;;;;;;;2.60;2.50;;;13.50;43.30;;;;;;20438;6864;309852;-75
2022/04/16 00:42:12;;;;;;;2.47;2.37;;;13.40;42.60;;;;;;20646;6865;120247;-75
2022/04/16 00:44:39;;;;;;;2.47;2.28;;;13.30;42.60;;;;;;20655;6865;117802;-75
2022/04/16 00:47:05;;;;;;;2.30;2.20;;;12.90;43.00;;;;;;20612;6865;117998;-75
2022/04/16 00:49:29;;;;;;;2.57;2.47;;;12.60;43.50;;;;;;20431;6865;280067;-75
2022/04/16 00:51:58;;;;;;;2.63;2.43;;;12.70;43.40;;;;;;20428;6865;309590;-74
2022/04/16 00:54:23;;;;;;;2.50;2.40;;;13.00;43.00;;;;;;20433;6865;290861;-76
2022/04/16 00:56:48;;;;;;;2.80;2.60;;;13.20;42.50;;;;;;20624;6865;121597;-75
2022/04/16 00:59:14;;;;;;;2.43;2.23;;;13.00;42.50;;;;;;20429;6865;313393;-77
2022/04/16 01:01:40;;;;;;;2.37;2.28;;;13.00;42.70;;;;;;20435;6865;308680;-78
2022/04/16 01:04:05;;;;;;;2.30;2.20;;;13.10;42.40;;;;;;20654;6865;120834;-75
2022/04/16 01:06:34;;;;;;;2.50;2.40;;;12.90;42.60;;;;;;20444;6865;306727;-77
2022/04/16 01:09:01;;;;;;;2.33;2.23;;;12.90;42.90;;;;;;20639;6865;117861;-75
2022/04/16 01:11:27;;;;;;;2.80;2.70;;;12.70;43.20;;;;;;20438;6865;347303;-75
2022/04/16 01:13:53;;;;;;;2.60;2.50;;;12.70;43.30;;;;;;20431;6865;279484;-75
2022/04/16 01:16:18;;;;;;;2.70;2.60;;;12.90;43.10;;;;;;20650;6863;117359;-75
2022/04/16 01:18:46;;;;;;;2.70;2.60;;;12.70;43.10;;;;;;20426;6864;338795;-75
2022/04/16 01:21:10;;;;;;;2.50;2.40;;;12.70;43.40;;;;;;20649;6864;119668;-75
2022/04/16 01:23:36;;;;;;;2.40;2.30;;;12.50;44.10;;;;;;20657;6864;117468;-76
2022/04/16 01:26:02;;;;;;;2.70;2.60;;;12.20;43.90;;;;;;20440;6864;308262;-80
2022/04/16 01:28:27;;;;;;;2.53;2.43;;;12.20;44.10;;;;;;20651;6864;117276;-75
2022/04/16 01:30:53;;;;;;;2.50;2.40;;;11.90;44.80;;;;;;20633;6864;117784;-76
2022/04/16 01:33:21;;;;;;;2.70;2.50;;;11.80;44.30;;;;;;20655;6864;117398;-76
2022/04/16 01:35:46;;;;;;;2.60;2.40;;;11.70;44.80;;;;;;20648;6864;117528;-76
2022/04/16 01:38:11;;;;;;;2.80;2.70;;;11.50;45.20;;;;;;20443;6864;308544;-75
2022/04/16 01:40:38;;;;;;;3.00;2.90;;;11.70;45.40;;;;;;20439;6864;278596;-75
2022/04/16 01:43:02;;;;;;;3.00;2.80;;;12.00;45.00;;;;;;20412;6864;279997;-75
2022/04/16 01:45:29;;;;;;;2.77;2.67;;;12.50;43.90;;;;;;20433;6864;279915;-75
2022/04/16 01:47:54;;;;;;;2.63;2.53;;;12.50;43.90;;;;;;20441;6864;280391;-77
2022/04/16 01:50:20;;;;;;;2.90;2.80;;;12.70;43.70;;;;;;20437;6864;309153;-75
2022/04/16 01:52:46;;;;;;;2.87;2.72;;;12.80;43.50;;;;;;20634;6864;118137;-75
2022/04/16 01:55:12;;;;;;;2.53;2.43;;;12.50;43.70;;;;;;20645;6865;120401;-75
2022/04/16 01:57:37;;;;;;;2.73;2.53;;;12.10;44.40;;;;;;20626;6865;117324;-78
2022/04/16 02:00:02;;;;;;;2.78;2.67;;;11.80;45.60;;;;;;20646;6865;117677;-78
2022/04/16 02:02:28;;;;;;;3.00;2.80;;;11.50;45.20;;;;;;20442;6865;318504;-76
2022/04/16 02:04:55;;;;;;;3.00;2.80;;;11.70;45.40;;;;;;20436;6865;309294;-74
2022/04/16 02:07:21;;;;;;;2.90;2.80;;;11.90;44.90;;;;;;20654;6865;117525;-74
2022/04/16 02:09:47;;;;;;;2.83;2.73;;;11.90;44.90;;;;;;20624;6865;117348;-74
2022/04/16 02:12:13;;;;;;;2.95;2.78;;;11.60;45.10;;;;;;20429;6865;299180;-74
2022/04/16 02:14:38;;;;;;;2.57;2.47;;;11.80;45.40;;;;;;20643;6865;117676;-74
2022/04/16 02:17:05;;;;;;;2.92;2.80;;;11.70;45.30;;;;;;20420;6865;333700;-74
2022/04/16 02:19:32;;;;;;;3.47;3.27;;;11.80;45.10;;;;;;20654;6865;117767;-73
2022/04/16 02:21:56;;;;;;;2.93;2.53;;;11.70;45.00;;;;;;20653;6865;117242;-74
2022/04/16 02:24:21;;;;;;;2.87;2.67;;;11.50;45.40;;;;;;20653;6865;117451;-74
2022/04/16 02:26:48;;;;;;;2.90;2.70;;;11.50;46.00;;;;;;20431;6865;284634;-74
2022/04/16 02:29:13;;;;;;;2.60;2.50;;;11.50;45.70;;;;;;20433;6863;309620;-74
2022/04/16 02:31:40;;;;;;;3.20;3.10;;;12.30;44.50;;;;;;20446;6864;279428;-74
2022/04/16 02:34:05;;;;;;;3.07;2.87;;;12.20;44.40;;;;;;20653;6864;117677;-74
2022/04/16 02:36:31;;;;;;;2.70;2.60;;;11.90;45.10;;;;;;20658;6864;119619;-74
2022/04/16 02:38:57;;;;;;;2.50;2.40;;;11.90;44.80;;;;;;20634;6864;122173;-74
2022/04/16 02:41:23;;;;;;;2.50;2.40;;;11.40;45.30;;;;;;20650;6864;117683;-74
2022/04/16 02:43:49;;;;;;;2.63;2.53;;;11.40;45.20;;;;;;20653;6864;117281;-74
2022/04/16 02:49:00;;;;;;;2.60;2.50;;;11.50;45.20;;;;;;20634;6864;119335;-74
2022/04/16 02:51:26;;;;;;;2.43;2.33;;;11.50;45.20;;;;;;20653;6864;117350;-74
2022/04/16 02:53:52;;;;;;;3.28;2.97;;;11.30;45.40;;;;;;20454;6864;308745;-74
2022/04/16 02:56:17;;;;;;;2.43;2.23;;;11.50;45.10;;;;;;20661;6864;118142;-74
2022/04/16 02:58:43;;;;;;;3.00;2.87;;;11.70;44.60;;;;;;20422;6864;337359;-74
2022/04/16 03:01:09;;;;;;;2.72;2.62;;;11.70;44.60;;;;;;20445;6864;336290;-74
2022/04/16 03:03:35;;;;;;;2.80;2.70;;;12.00;44.10;;;;;;20441;6864;327408;-74
2022/04/16 03:06:01;;;;;;;2.58;2.47;;;12.20;43.40;;;;;;20655;6865;117232;-74
2022/04/16 03:08:27;;;;;;;3.07;2.80;;;12.10;43.70;;;;;;20447;6865;284069;-74
2022/04/16 03:10:52;;;;;;;2.50;2.40;;;12.10;43.50;;;;;;20629;6865;117958;-76
2022/04/16 03:13:18;;;;;;;2.83;2.70;;;11.90;43.90;;;;;;20445;6865;278976;-75
2022/04/16 03:18:29;;;;;;;3.80;3.60;;;11.90;43.90;;;;;;20441;6865;309428;-74
2022/04/16 03:20:57;;;;;;;2.55;2.45;;;11.90;43.50;;;;;;20637;6865;117496;-74
2022/04/16 03:23:23;;;;;;;2.60;2.50;;;11.80;43.70;;;;;;20439;6865;335049;-74
2022/04/16 03:25:48;;;;;;;2.65;2.55;;;11.80;43.80;;;;;;20655;6865;123221;-74
2022/04/16 03:28:15;;;;;;;2.57;2.47;;;11.40;44.40;;;;;;20654;6865;117310;-74
2022/04/16 03:30:40;;;;;;;2.60;2.40;;;11.40;44.40;;;;;;20631;6865;118572;-74
2022/04/16 03:33:06;;;;;;;3.00;2.80;;;11.20;44.90;;;;;;20654;6865;117866;-74
2022/04/16 03:35:31;;;;;;;3.03;2.87;;;11.00;45.20;;;;;;20454;6865;337866;-74
2022/04/16 03:37:57;;;;;;;2.90;2.70;;;11.20;45.00;;;;;;20660;6865;118050;-74
2022/04/16 03:40:26;;;;;;;3.10;3.00;;;11.30;45.00;;;;;;20448;6863;330510;-74
2022/04/16 03:42:51;;;;;;;3.30;3.10;;;11.40;44.50;;;;;;20633;6864;126677;-74
2022/04/16 03:45:20;;;;;;;3.40;3.20;;;11.40;44.60;;;;;;20454;6864;279622;-74
2022/04/16 03:47:47;;;;;;;3.08;2.97;;;11.60;45.00;;;;;;20442;6864;307961;-74
2022/04/16 03:50:12;;;;;;;2.93;2.80;;;11.90;43.90;;;;;;20443;6864;324823;-75
2022/04/16 03:52:38;;;;;;;3.10;3.00;;;12.10;43.30;;;;;;20448;6864;313368;-74
2022/04/16 04:00:34;;;;;;;2.90;2.80;;;12.40;42.70;;;;;;20639;6864;117816;-74
2022/04/16 04:03:00;;;;;;;3.00;2.80;;;12.10;43.30;;;;;;20627;6864;120490;-75
2022/04/16 04:05:27;;;;;;;3.70;3.17;;;11.80;43.90;;;;;;20454;6864;313224;-74
2022/04/16 04:07:53;;;;;;;2.90;2.80;;;11.80;43.60;;;;;;20449;6864;303272;-74
2022/04/16 04:10:19;;;;;;;3.00;2.90;;;12.10;43.20;;;;;;20643;6864;117341;-73
2022/04/16 04:12:45;;;;;;;3.30;3.20;;;12.00;43.50;;;;;;20427;6864;344324;-74
2022/04/16 04:15:11;;;;;;;2.83;2.72;;;12.10;43.40;;;;;;20447;6864;279298;-74
2022/04/16 04:17:37;;;;;;;3.35;3.20;;;12.30;43.40;;;;;;20449;6865;332811;-73
2022/04/16 04:20:03;;;;;;;3.23;3.03;;;12.60;42.60;;;;;;20667;6865;117302;-73
2022/04/16 04:22:29;;;;;;;3.30;3.10;;;12.40;43.00;;;;;;20662;6865;119524;-74
2022/04/16 04:24:55;;;;;;;3.03;2.87;;;11.90;44.20;;;;;;20638;6865;141869;-74
2022/04/16 04:27:21;;;;;;;3.40;3.20;;;11.80;44.10;;;;;;20447;6865;279496;-74
2022/04/16 04:29:46;;;;;;;4.20;4.00;;;12.00;43.60;;;;;;20456;6865;307950;-74
2022/04/16 04:32:13;;;;;;;8.90;8.23;;;12.30;43.20;;;;;;20458;6865;325534;-74
2022/04/16 04:34:38;;;;;;;3.23;3.03;;;12.60;43.00;;;;;;20642;6865;117591;-74
2022/04/16 04:37:04;;;;;;;3.30;3.10;;;12.50;43.00;;;;;;20393;6865;300675;-75
2022/04/16 04:39:31;;;;;;;3.13;3.00;;;12.40;43.10;;;;;;20642;6865;117693;-74
2022/04/16 04:41:56;;;;;;;3.40;3.20;;;12.40;43.10;;;;;;20418;6865;302390;-74
2022/04/16 04:44:22;;;;;;;3.10;3.00;;;12.50;42.70;;;;;;20422;6865;279269;-74
2022/04/16 04:46:47;;;;;;;2.97;2.87;;;12.70;42.60;;;;;;20639;6865;120765;-74
2022/04/16 04:49:13;;;;;;;3.03;2.92;;;12.50;42.80;;;;;;20458;6865;279158;-73
2022/04/16 04:51:39;;;;;;;3.33;3.13;;;12.60;43.00;;;;;;20663;6863;117361;-73
2022/04/16 04:54:05;;;;;;;3.27;3.17;;;12.50;42.70;;;;;;20445;6864;313739;-73
2022/04/16 04:56:32;;;;;;;3.17;3.00;;;12.60;42.70;;;;;;20658;6864;119186;-73
2022/04/16 04:58:58;;;;;;;2.93;2.83;;;12.40;42.80;;;;;;20657;6864;118108;-74
2022/04/16 05:01:25;;;;;;;2.80;2.70;;;12.20;43.30;;;;;;20644;6864;117893;-71
2022/04/16 05:03:52;;;;;;;2.93;2.73;;;11.90;43.80;;;;;;20652;6864;117763;-71
2022/04/16 05:06:20;;;;;;;3.30;3.20;;;12.00;44.10;;;;;;20449;6864;297270;-73
2022/04/16 05:08:45;;;;;;;2.87;2.77;;;12.00;44.00;;;;;;20648;6864;117746;-71
2022/04/16 05:11:11;;;;;;;4.07;3.87;;;12.00;43.90;;;;;;20660;6864;118200;-73
2022/04/16 05:13:38;;;;;;;2.90;2.73;;;11.90;44.30;;;;;;20666;6864;117309;-74
2022/04/16 05:16:07;;;;;;;3.43;3.20;;;11.70;44.60;;;;;;20703;6864;116879;-76
2022/04/16 05:18:31;;;;;;;2.93;2.73;;;11.60;44.60;;;;;;20722;6864;116437;-74
2022/04/16 05:20:58;;;;;;;3.13;2.93;;;11.50;44.80;;;;;;20690;6864;117682;-76
2022/04/16 05:23:24;;;;;;;3.00;2.90;;;11.50;45.10;;;;;;20672;6864;118026;-75
2022/04/16 05:25:51;;;;;;;3.55;3.40;;;11.50;45.20;;;;;;20477;6864;314338;-74
2022/04/16 05:28:18;;;;;;;3.30;3.10;;;11.80;44.50;;;;;;20677;6864;117751;-74
2022/04/16 05:30:58;;;;;;;3.33;3.13;;;11.90;44.50;;;;;;20667;6865;118879;-78
2022/04/16 05:36:07;;;;;;;3.40;3.20;;;11.60;44.80;;;;;;20649;6865;119082;-76
2022/04/16 05:38:32;;;;;;;3.40;3.20;;;11.60;45.20;;;;;;20444;6865;281800;-75
2022/04/16 05:40:58;;;;;;;3.40;3.20;;;11.90;44.60;;;;;;20646;6865;118263;-76
2022/04/16 05:43:23;;;;;;;3.70;3.50;;;11.90;44.30;;;;;;20451;6865;337898;-76
2022/04/16 05:45:49;;;;;;;3.55;3.37;;;12.10;44.00;;;;;;20451;6865;280851;-75
2022/04/16 05:48:16;;;;;;;3.77;3.57;;;12.50;43.50;;;;;;20451;6865;313014;-75
2022/04/16 05:50:44;;;;;;;3.17;3.07;;;12.80;43.20;;;;;;20643;6865;117411;-76
2022/04/16 05:53:10;;;;;;;3.27;3.17;;;12.70;43.20;;;;;;20665;6865;117536;-76
2022/04/16 05:55:36;;;;;;;3.37;3.20;;;12.20;44.00;;;;;;20667;6865;119025;-75
2022/04/16 05:58:02;;;;;;;4.00;3.80;;;12.20;43.90;;;;;;20447;6865;295528;-76
2022/04/16 06:00:28;;;;;;;56.27;44.87;;;12.40;43.90;;;;;;20666;6865;119223;-75
2022/04/16 06:02:54;;;;;;;3.73;3.53;;;12.30;43.30;;;;;;20429;6863;308079;-75
2022/04/16 06:05:21;;;;;;;3.37;3.17;;;12.50;43.30;;;;;;20664;6864;118598;-76
2022/04/16 06:07:45;;;;;;;3.90;3.70;;;12.40;43.30;;;;;;20454;6864;289846;-75
2022/04/16 06:10:11;;;;;;;3.43;3.23;;;12.50;43.40;;;;;;20664;6864;117566;-76
2022/04/16 06:12:36;;;;;;;3.83;3.60;;;12.40;43.40;;;;;;20665;6864;117342;-76
2022/04/16 06:15:03;;;;;;;3.83;3.53;;;12.20;43.70;;;;;;20648;6864;117784;-76
2022/04/16 06:17:28;;;;;;;4.15;3.95;;;12.00;44.10;;;;;;20452;6864;335331;-78
2022/04/16 06:19:54;;;;;;;3.92;3.60;;;12.20;44.00;;;;;;20658;6864;118251;-75
2022/04/16 06:22:20;;;;;;;4.20;4.00;;;12.20;43.80;;;;;;20453;6864;283559;-76
2022/04/16 06:24:46;;;;;;;3.80;3.60;;;12.50;43.70;;;;;;20643;6864;117780;-76
2022/04/16 06:27:12;;;;;;;4.47;4.17;;;12.50;43.60;;;;;;20447;6864;310002;-76
2022/04/16 06:29:37;;;;;;;4.37;4.18;;;12.70;43.30;;;;;;20449;6864;279126;-76
2022/04/16 06:32:03;;;;;;;4.47;4.17;;;13.00;42.80;;;;;;20451;6864;279474;-76
2022/04/16 06:34:28;;;;;;;4.32;4.12;;;13.20;42.60;;;;;;20443;6864;337807;-75
2022/04/16 06:36:54;;;;;;;4.23;4.03;;;13.40;42.30;;;;;;20431;6864;279159;-76
2022/04/16 06:39:20;;;;;;;5.25;4.95;;;13.50;41.80;;;;;;20456;6864;279552;-77
2022/04/16 06:41:46;;;;;;;4.37;4.17;;;13.60;41.60;;;;;;20659;6865;118137;-78
2022/04/16 06:44:12;;;;;;;4.47;4.28;;;13.40;41.90;;;;;;20451;6865;342685;-77
2022/04/16 06:46:38;;;;;;;3.97;3.77;;;13.30;42.60;;;;;;20656;6865;122384;-76
2022/04/16 06:49:04;;;;;;;4.70;4.50;;;13.30;42.50;;;;;;20431;6865;302347;-77
2022/04/16 06:51:29;;;;;;;5.00;4.62;;;13.40;42.30;;;;;;20453;6865;308610;-76
2022/04/16 06:53:55;;;;;;;3.97;3.77;;;13.60;41.80;;;;;;20661;6865;117369;-77
2022/04/16 06:56:21;;;;;;;4.20;4.00;;;13.50;42.00;;;;;;20665;6865;117714;-75
2022/04/16 06:58:46;;;;;;;4.75;4.45;;;13.30;42.50;;;;;;20445;6865;336706;-77
2022/04/16 07:01:12;;;;;;;3.92;3.62;;;13.40;43.00;;;;;;20661;6865;117826;-77
2022/04/16 07:03:39;;;;;;;4.20;4.00;;;13.40;42.50;;;;;;20684;6865;117319;-75
2022/04/16 07:06:05;;;;;;;4.80;4.50;;;13.20;43.10;;;;;;20696;6865;117634;-76
2022/04/16 07:08:31;;;;;;;4.80;4.50;;;13.20;43.10;;;;;;20662;6865;117685;-79
2022/04/16 07:10:57;;;;;;;4.47;4.10;;;13.10;43.10;;;;;;20642;6865;117684;-76
2022/04/16 07:13:22;;;;;;;4.03;3.83;;;13.00;43.00;;;;;;20660;6862;117527;-77
2022/04/16 07:15:48;;;;;;;5.37;5.07;;;12.90;43.10;;;;;;20445;6863;338261;-75
2022/04/16 07:18:14;;;;;;;4.53;4.33;;;13.40;43.10;;;;;;20663;6864;118096;-77
2022/04/16 07:20:41;;;;;;;4.57;4.27;;;13.30;43.00;;;;;;20629;6864;121144;-77
2022/04/16 07:23:05;;;;;;;4.18;3.87;;;13.40;43.10;;;;;;20646;6864;117470;-76
2022/04/16 07:25:31;;;;;;;4.10;3.90;;;13.40;43.20;;;;;;20668;6864;121903;-76
2022/04/16 07:27:56;;;;;;;6.10;5.80;;;13.40;43.00;;;;;;20449;6864;339103;-77
2022/04/16 07:30:23;;;;;;;5.50;5.20;;;14.00;42.40;;;;;;20461;6864;279097;-77
2022/04/16 07:32:48;;;;;;;4.57;4.27;;;13.90;42.30;;;;;;20651;6864;118988;-80
2022/04/16 07:35:14;;;;;;;4.45;4.25;;;14.00;42.10;;;;;;20687;6864;120061;-77
2022/04/16 07:37:39;;;;;;;5.17;4.67;;;13.90;42.00;;;;;;20668;6864;118053;-76
2022/04/16 07:40:05;;;;;;;5.33;4.93;;;13.70;42.30;;;;;;20460;6864;337797;-78
2022/04/16 07:42:32;;;;;;;5.07;4.77;;;13.90;41.60;;;;;;20672;6864;117351;-79
2022/04/16 07:44:56;;;;;;;4.50;4.30;;;13.90;41.60;;;;;;20648;6864;117265;-77
2022/04/16 07:47:22;;;;;;;4.65;4.35;;;13.80;41.80;;;;;;20660;6864;118712;-76
2022/04/16 07:49:48;;;;;;;5.47;5.17;;;13.70;42.10;;;;;;20453;6864;309489;-76
2022/04/16 07:52:13;;;;;;;5.30;5.00;;;14.00;41.70;;;;;;20440;6865;313091;-75
2022/04/16 07:54:40;;;;;;;5.20;4.90;;;14.40;41.00;;;;;;20666;6865;117297;-75
2022/04/16 07:57:05;;;;;;;6.33;4.90;;;14.40;41.00;;;;;;20502;6865;118943;-76
2022/04/16 07:59:31;;;;;;;6.07;5.70;;;14.30;41.40;;;;;;20373;6865;313154;-76
2022/04/16 08:02:01;;;;;;;5.70;5.28;;;14.40;40.40;;;;;;20656;6865;117367;-74
2022/04/16 08:04:29;;;;;;;5.00;4.67;;;14.30;41.10;;;;;;20626;6865;117343;-72
2022/04/16 08:06:54;;;;;;;5.43;5.10;;;14.00;40.80;;;;;;20652;6865;118035;-74
2022/04/16 08:09:19;;;;;;;5.25;4.93;;;13.80;41.10;;;;;;20662;6865;121043;-74
2022/04/16 08:11:48;;;;;;;5.75;5.45;;;13.60;41.50;;;;;;20453;6865;283576;-75
2022/04/16 08:14:13;;;;;;;5.87;5.47;;;13.80;41.70;;;;;;20656;6865;118013;-75
2022/04/16 08:16:39;;;;;;;5.35;5.05;;;13.90;41.60;;;;;;20657;6865;117785;-74
2022/04/16 08:19:05;;;;;;;5.77;5.37;;;13.90;41.70;;;;;;20662;6865;118139;-74
2022/04/16 08:21:34;;;;;;;5.90;5.50;;;13.60;41.90;;;;;;20661;6865;117078;-74
2022/04/16 08:24:22;;;;;;;5.67;5.37;;;13.50;42.00;;;;;;20660;6865;117347;-73
2022/04/16 08:26:39;;;;;;;6.35;6.05;;;13.50;42.00;;;;;;20435;6863;279614;-74
2022/04/16 08:29:04;;;;;;;6.30;5.90;;;13.70;41.70;;;;;;20452;6864;347089;-76
2022/04/16 08:31:30;;;;;;;6.47;6.07;;;14.00;41.20;;;;;;20452;6864;308588;-75
2022/04/16 08:33:56;;;;;;;6.37;6.07;;;14.30;41.50;;;;;;20447;6864;308281;-72
2022/04/16 08:36:22;;;;;;;6.20;5.80;;;14.50;39.70;;;;;;20662;6864;121179;-70
2022/04/16 08:38:48;;;;;;;6.63;6.17;;;14.50;40.00;;;;;;20429;6864;308943;-75
2022/04/16 08:41:13;;;;;;;5.47;5.17;;;14.50;40.00;;;;;;20664;6864;117481;-74
2022/04/16 08:43:42;;;;;;;5.60;5.30;;;14.10;40.30;;;;;;20665;6864;117684;-73
2022/04/16 08:46:05;;;;;;;6.40;6.00;;;14.10;40.30;;;;;;20642;6864;117258;-74
2022/04/16 08:48:31;;;;;;;6.53;6.12;;;13.90;40.80;;;;;;20463;6864;279616;-72
2022/04/16 08:50:56;;;;;;;6.78;6.37;;;14.00;41.20;;;;;;20422;6864;339034;-72
2022/04/16 08:53:22;;;;;;;6.40;5.90;;;14.40;40.40;;;;;;20671;6864;117380;-74
2022/04/16 08:55:47;;;;;;;6.45;6.05;;;14.50;40.40;;;;;;20671;6864;121055;-82
2022/04/16 08:58:13;;;;;;;5.78;5.28;;;14.30;40.70;;;;;;20671;6864;117318;-76
2022/04/16 09:00:38;;;;;;;6.07;5.68;;;14.20;41.20;;;;;;20673;6864;117260;-75
2022/04/16 09:03:06;;;;;;;6.03;5.62;;;14.10;41.30;;;;;;20643;6864;117645;-73
2022/04/16 09:05:30;;;;;;;6.30;5.90;;;14.10;41.30;;;;;;20654;6865;117375;-73
2022/04/16 09:07:56;;;;;;;6.60;6.10;;;14.10;41.40;;;;;;20665;6865;117501;-75
2022/04/16 09:10:21;;;;;;;5.70;5.33;;;14.00;41.30;;;;;;20653;6865;117362;-76
2022/04/16 09:12:50;;;;;;;7.13;6.63;;;14.00;41.60;;;;;;20421;6865;312674;-72
2022/04/16 09:15:16;;;;;;;6.37;5.97;;;14.30;41.30;;;;;;20655;6865;117869;-75
2022/04/16 09:17:41;;;;;;;6.90;6.50;;;14.50;40.80;;;;;;20448;6865;309191;-72
2022/04/16 09:20:11;;;;;;;6.50;6.10;;;14.70;40.00;;;;;;20648;6865;121122;-73
2022/04/16 09:22:38;;;;;;;6.82;6.43;;;15.00;39.90;;;;;;20447;6865;323201;-73
2022/04/16 09:25:04;;;;;;;6.50;6.10;;;15.00;39.90;;;;;;20641;6865;117835;-74
2022/04/16 09:27:39;;;;;;;6.60;6.20;;;15.10;39.80;;;;;;20432;6865;284320;-75
2022/04/16 09:30:06;;;;;;;6.03;5.73;;;15.30;39.50;;;;;;20036;6865;282665;-81
2022/04/16 09:32:31;;;;;;;6.60;6.15;;;15.60;38.40;;;;;;20434;6865;309029;-78
2022/04/16 09:34:58;;;;;;;6.33;5.93;;;16.10;37.60;;;;;;20389;6865;279055;-74
2022/04/16 09:37:24;;;;;;;5.10;4.80;;;16.10;37.50;;;;;;20665;6863;117337;-76
2022/04/16 09:39:49;;;;;;;6.20;5.80;;;16.00;37.90;;;;;;20449;6864;282460;-75
2022/04/16 09:42:14;;;;;;;10.37;9.77;;;16.10;37.10;;;;;;20453;6864;309094;-76
2022/04/16 09:44:40;;;;;;;5.57;5.27;;;16.20;37.10;;;;;;20380;6864;312879;-76
2022/04/16 09:47:06;;;;;;;5.60;5.30;;;16.60;36.70;;;;;;20421;6864;309113;-76
2022/04/16 09:49:32;;;;;;;5.33;5.03;;;16.60;36.70;;;;;;20655;6864;117213;-77
2022/04/16 09:51:57;;;;;;;4.35;4.15;;;16.50;36.60;;;;;;20658;6864;117668;-75
2022/04/16 09:54:27;;;;;;;5.97;5.47;;;16.30;37.10;;;;;;20559;6864;118922;-75
2022/04/16 09:56:49;;;;;;;5.40;5.10;;;16.10;37.70;;;;;;20510;6864;118091;-77
2022/04/16 09:59:28;;;;;;;4.93;4.63;;;15.80;37.70;;;;;;20606;6864;117893;-76
2022/04/16 10:02:04;;;;;;;4.90;4.60;;;15.70;38.10;;;;;;20593;6864;119966;-77
2022/04/16 10:04:29;;;;;;;5.77;5.47;;;15.60;38.60;;;;;;20293;6864;292436;-77
2022/04/16 10:06:51;;;;;;;5.32;5.03;;;15.90;37.90;;;;;;20311;6864;340690;-82
2022/04/16 10:09:22;;;;;;;4.77;4.53;;;16.30;37.30;;;;;;20549;6864;118083;-75
2022/04/16 10:14:45;;;;;;;4.90;4.50;;;16.40;36.20;;;;;;20490;6870;118243;-78
2022/04/16 10:17:14;;;;;;;5.13;4.83;;;15.90;37.10;;;;;;20637;6870;118012;-74
2022/04/16 10:19:40;;;;;;;5.40;5.10;;;15.80;37.00;;;;;;20432;6870;309052;-76
2022/04/16 10:22:06;;;;;;;5.73;5.40;;;15.80;37.30;;;;;;20417;6870;280234;-77
2022/04/16 10:24:33;;;;;;;5.55;5.25;;;16.00;37.40;;;;;;20426;6870;308866;-76
2022/04/16 10:27:05;;;;;;;5.40;4.90;;;16.20;37.40;;;;;;20619;6870;117932;-75
2022/04/16 10:29:34;;;;;;;5.53;5.03;;;16.00;37.40;;;;;;20589;6870;118240;-77
2022/04/16 10:32:00;;;;;;;4.90;4.60;;;15.60;37.70;;;;;;20629;6870;117361;-76
2022/04/16 10:34:30;;;;;;;5.77;5.37;;;15.20;38.00;;;;;;20652;6870;117355;-76
2022/04/16 10:36:55;;;;;;;5.60;5.30;;;15.00;38.40;;;;;;20410;6870;280090;-73
2022/04/16 10:39:24;;;;;;;5.40;5.10;;;15.00;38.90;;;;;;20638;6870;117922;-73
2022/04/16 10:41:53;;;;;;;5.40;5.00;;;15.00;38.90;;;;;;20625;6870;117877;-73
2022/04/16 10:44:18;;;;;;;6.07;5.67;;;14.80;39.40;;;;;;20621;6870;117468;-74
2022/04/16 10:46:46;;;;;;;6.10;5.70;;;14.70;39.80;;;;;;20585;6870;118382;-76
2022/04/16 10:49:11;;;;;;;5.83;5.43;;;14.60;40.10;;;;;;20601;6869;121314;-74
2022/04/16 10:51:36;;;;;;;6.05;5.65;;;14.60;40.40;;;;;;20431;6870;280996;-74
2022/04/16 10:54:09;;;;;;;5.80;5.40;;;14.90;39.80;;;;;;20621;6870;117868;-74
2022/04/16 10:56:39;;;;;;;5.28;4.97;;;15.00;39.50;;;;;;20413;6870;314175;-72
2022/04/16 10:59:00;;;;;;;5.13;4.83;;;15.30;38.80;;;;;;20402;6870;313520;-76
2022/04/16 11:01:26;;;;;;;5.30;5.00;;;15.70;37.60;;;;;;20417;6870;308924;-74
2022/04/16 11:03:53;;;;;;;5.30;5.00;;;16.10;37.10;;;;;;20618;6870;117427;-75
2022/04/16 11:06:18;;;;;;;5.00;4.80;;;16.40;36.20;;;;;;20425;6870;310243;-73
2022/04/16 11:08:45;;;;;;;5.27;4.97;;;16.30;36.10;;;;;;20386;6870;289105;-73
2022/04/16 11:11:09;;;;;;;5.37;5.07;;;16.60;36.00;;;;;;20403;6870;299675;-72
2022/04/16 11:13:34;;;;;;;5.00;4.80;;;16.80;35.50;;;;;;20427;6870;279251;-71
2022/04/16 11:16:01;;;;;;;5.18;4.87;;;17.00;34.60;;;;;;20413;6870;324989;-72
2022/04/16 11:18:26;;;;;;;4.33;4.13;;;17.00;34.50;;;;;;20636;6870;118207;-72
2022/04/16 11:20:55;;;;;;;5.77;5.40;;;16.80;35.00;;;;;;20408;6870;279889;-73
2022/04/16 11:23:20;;;;;;;5.37;5.07;;;16.80;34.90;;;;;;20395;6870;309395;-72
2022/04/16 11:34:17;;;;;;;4.43;4.18;;;16.60;34.50;;;;;;20432;6870;334684;-76
2022/04/16 11:36:41;;;;;;;4.40;4.10;;;16.80;34.10;;;;;;20620;6870;123380;-76
2022/04/16 11:39:17;;;;;;;4.77;4.47;;;16.60;34.70;;;;;;20630;6870;117898;-76
2022/04/16 11:41:46;;;;;;;4.30;4.00;;;15.90;35.60;;;;;;20626;6870;117460;-73
2022/04/16 11:44:13;;;;;;;5.10;4.80;;;15.80;36.10;;;;;;20649;6870;117400;-75
2022/04/16 11:46:38;;;;;;;5.20;4.90;;;15.80;36.10;;;;;;20432;6870;344837;-76
2022/04/16 11:49:03;;;;;;;5.10;4.80;;;16.00;36.00;;;;;;20408;6870;308886;-76
2022/04/16 11:51:29;;;;;;;4.53;4.33;;;16.30;35.60;;;;;;20643;6870;117622;-77
2022/04/16 11:53:55;;;;;;;4.72;4.43;;;16.20;35.50;;;;;;20635;6870;118152;-76
2022/04/16 11:56:21;;;;;;;4.77;4.47;;;16.20;35.50;;;;;;20642;6870;118468;-76
2022/04/16 11:58:53;;;;;;;5.35;5.05;;;16.00;35.50;;;;;;20405;6870;338140;-79
2022/04/16 12:01:21;;;;;;;6.30;6.00;;;16.00;35.40;;;;;;20393;6868;303065;-81
2022/04/16 12:03:48;;;;;;;5.25;4.95;;;16.30;35.30;;;;;;20440;6870;309105;-77
2022/04/16 12:06:12;;;;;;;4.77;4.57;;;16.60;35.10;;;;;;20440;6870;279889;-75
2022/04/16 12:08:44;;;;;;;4.07;3.87;;;16.90;34.60;;;;;;20650;6870;117467;-75
2022/04/16 12:11:11;;;;;;;4.18;3.97;;;16.90;33.20;;;;;;20430;6870;309754;-73
2022/04/16 12:13:39;;;;;;;3.70;3.50;;;16.80;33.10;;;;;;20644;6870;117427;-72
2022/04/16 12:16:05;;;;;;;3.50;3.30;;;16.80;33.60;;;;;;20426;6870;320890;-70
2022/04/16 12:18:36;;;;;;;3.40;3.20;;;16.80;32.10;;;;;;20627;6870;123342;-72
2022/04/16 12:21:06;;;;;;;4.20;3.90;;;16.70;32.60;;;;;;20624;6870;123656;-72
2022/04/16 12:23:31;;;;;;;3.20;3.00;;;16.50;33.30;;;;;;20613;6870;118376;-72
2022/04/16 12:26:06;;;;;;;4.10;3.90;;;16.30;33.70;;;;;;20434;6870;316684;-72
2022/04/16 12:28:32;;;;;;;4.80;4.50;;;16.40;33.20;;;;;;20438;6870;286115;-72
2022/04/16 12:30:57;;;;;;;5.18;4.87;;;16.60;33.10;;;;;;20386;6870;309403;-72
2022/04/16 12:33:26;;;;;;;4.43;4.13;;;16.90;33.60;;;;;;20650;6870;118771;-72
2022/04/16 12:35:55;;;;;;;4.33;4.03;;;16.70;33.50;;;;;;20639;6870;117673;-72
2022/04/16 12:38:17;;;;;;;4.20;4.00;;;16.40;33.90;;;;;;20635;6870;117402;-71
2022/04/16 12:40:43;;;;;;;5.13;4.73;;;16.10;34.30;;;;;;20412;6870;306167;-73
2022/04/16 12:43:08;;;;;;;5.17;4.87;;;16.20;34.70;;;;;;20423;6870;303827;-72
2022/04/16 12:45:34;;;;;;;4.93;4.63;;;16.50;33.80;;;;;;20430;6870;324816;-72
2022/04/16 12:47:59;;;;;;;4.40;4.20;;;16.80;33.30;;;;;;20432;6870;279394;-71
2022/04/16 12:50:26;;;;;;;4.73;4.50;;;17.00;32.80;;;;;;20430;6870;280826;-72
2022/04/16 12:52:50;;;;;;;4.30;4.00;;;17.10;32.50;;;;;;20389;6870;309480;-72
2022/04/16 12:55:16;;;;;;;4.10;3.90;;;17.20;32.80;;;;;;20647;6870;117945;-72